createdAt,value
2018-05-19T00:00:28.272Z,12.00
2018-05-19T00:01:28.254Z,12.00
2018-05-19T00:02:28.235Z,12.00
2018-05-19T00:03:28.218Z,12.00
2018-05-19T00:04:28.199Z,12.00
2018-05-19T00:05:28.249Z,12.00
2018-05-19T00:06:28.178Z,12.00
2018-05-19T00:07:28.148Z,12.00
2018-05-19T00:08:28.139Z,12.00
2018-05-19T00:09:28.112Z,12.00
2018-05-19T00:10:28.098Z,12.00
2018-05-19T00:11:28.075Z,12.00
2018-05-19T00:12:28.059Z,12.00
2018-05-19T00:13:28.043Z,12.00
2018-05-19T00:14:28.024Z,12.00
2018-05-19T00:15:28.004Z,12.00
2018-05-19T00:16:27.987Z,12.00
2018-05-19T00:17:27.970Z,12.00
2018-05-19T00:18:27.957Z,12.00
2018-05-19T00:19:27.934Z,12.00
2018-05-19T00:20:27.928Z,12.00
2018-05-19T00:21:27.899Z,12.00
2018-05-19T00:22:27.887Z,12.00
2018-05-19T00:23:27.863Z,12.00
2018-05-19T00:24:27.847Z,12.00
2018-05-19T00:25:27.978Z,12.00
2018-05-19T00:26:27.808Z,12.00
2018-05-19T00:27:27.793Z,12.00
2018-05-19T00:28:27.776Z,12.00
2018-05-19T00:29:27.756Z,12.00
2018-05-19T00:30:27.739Z,12.00
2018-05-19T00:31:27.721Z,12.00
2018-05-19T00:32:27.747Z,12.00
2018-05-19T00:33:27.684Z,12.00
2018-05-19T00:34:27.665Z,12.00
2018-05-19T00:35:27.649Z,12.00
2018-05-19T00:36:27.630Z,12.00
2018-05-19T00:37:27.615Z,12.00
2018-05-19T00:38:27.601Z,12.00
2018-05-19T00:39:27.578Z,12.00
2018-05-19T00:40:27.558Z,12.00
2018-05-19T00:41:27.548Z,12.00
2018-05-19T00:42:27.520Z,12.00
2018-05-19T00:43:27.503Z,12.00
2018-05-19T00:44:27.492Z,12.00
2018-05-19T00:45:27.467Z,12.00
2018-05-19T00:46:27.457Z,12.00
2018-05-19T00:47:27.433Z,12.00
2018-05-19T00:48:27.413Z,12.00
2018-05-19T00:49:27.395Z,12.00
2018-05-19T00:50:27.380Z,12.00
2018-05-19T00:51:27.361Z,12.00
2018-05-19T00:52:27.342Z,12.00
2018-05-19T00:53:27.326Z,12.00
2018-05-19T00:54:27.307Z,12.00
2018-05-19T00:55:27.289Z,12.00
2018-05-19T00:56:27.280Z,12.00
2018-05-19T00:57:27.261Z,12.00
2018-05-19T00:58:27.333Z,12.00
2018-05-19T00:59:27.218Z,12.00
2018-05-19T01:00:27.201Z,12.00
2018-05-19T01:01:27.184Z,12.00
2018-05-19T01:02:27.164Z,12.00
2018-05-19T01:03:27.151Z,12.00
2018-05-19T01:04:27.127Z,12.00
2018-05-19T01:05:27.116Z,12.00
2018-05-19T01:06:27.088Z,12.00
2018-05-19T01:07:27.071Z,12.00
2018-05-19T01:08:27.057Z,12.00
2018-05-19T01:09:27.037Z,12.00
2018-05-19T01:10:27.017Z,12.00
2018-05-19T01:11:26.998Z,12.00
2018-05-19T01:12:26.984Z,12.00
2018-05-19T01:13:26.963Z,12.00
2018-05-19T01:14:26.944Z,12.00
2018-05-19T01:15:26.925Z,12.00
2018-05-19T01:16:26.909Z,12.00
2018-05-19T01:17:26.890Z,12.00
2018-05-19T01:18:26.873Z,12.00
2018-05-19T01:19:26.864Z,12.00
2018-05-19T01:20:26.836Z,12.00
2018-05-19T01:21:26.825Z,12.00
2018-05-19T01:22:26.800Z,12.00
2018-05-19T01:23:26.780Z,12.00
2018-05-19T01:24:26.763Z,12.00
2018-05-19T01:25:26.745Z,12.00
2018-05-19T01:26:26.726Z,12.00
2018-05-19T01:27:26.709Z,12.00
2018-05-19T01:28:26.689Z,12.00
2018-05-19T01:29:26.675Z,12.00
2018-05-19T01:30:26.661Z,12.00
2018-05-19T01:31:26.638Z,12.00
2018-05-19T01:32:26.619Z,12.00
2018-05-19T01:33:26.604Z,12.00
2018-05-19T01:34:26.580Z,12.00
2018-05-19T01:35:26.565Z,12.00
2018-05-19T01:36:26.545Z,12.00
2018-05-19T01:37:26.526Z,12.00
2018-05-19T01:38:26.507Z,12.00
2018-05-19T01:39:26.490Z,12.00
2018-05-19T01:40:26.471Z,12.00
2018-05-19T01:41:26.455Z,12.00
2018-05-19T01:42:26.442Z,12.00
2018-05-19T01:43:26.417Z,12.00
2018-05-19T01:44:26.399Z,12.00
2018-05-19T01:45:26.381Z,12.00
2018-05-19T01:46:26.364Z,12.00
2018-05-19T01:47:26.346Z,12.00
2018-05-19T01:48:26.325Z,12.00
2018-05-19T01:49:26.309Z,12.00
2018-05-19T01:50:26.289Z,12.00
2018-05-19T01:51:26.271Z,12.00
2018-05-19T01:52:26.255Z,12.00
2018-05-19T01:53:26.236Z,12.00
2018-05-19T01:54:26.367Z,12.00
2018-05-19T01:55:26.198Z,12.00
2018-05-19T01:56:26.179Z,12.00
2018-05-19T01:57:26.165Z,12.00
2018-05-19T01:58:26.143Z,12.00
2018-05-19T01:59:26.126Z,12.00
2018-05-19T02:00:26.110Z,12.00
2018-05-19T02:01:26.091Z,12.00
2018-05-19T02:02:26.070Z,12.00
2018-05-19T02:03:26.055Z,12.00
2018-05-19T02:04:26.036Z,12.00
2018-05-19T02:05:26.025Z,12.00
2018-05-19T02:06:26.004Z,12.00
2018-05-19T02:07:25.987Z,12.00
2018-05-19T02:08:25.963Z,12.00
2018-05-19T02:09:25.952Z,12.00
2018-05-19T02:10:25.927Z,12.00
2018-05-19T02:11:25.905Z,12.00
2018-05-19T02:12:25.887Z,12.00
2018-05-19T02:13:25.870Z,12.00
2018-05-19T02:14:25.851Z,12.00
2018-05-19T02:15:25.832Z,12.00
2018-05-19T02:16:25.825Z,12.00
2018-05-19T02:17:25.799Z,12.00
2018-05-19T02:18:25.778Z,12.00
2018-05-19T02:19:25.764Z,12.00
2018-05-19T02:20:25.745Z,12.00
2018-05-19T02:21:25.723Z,12.00
2018-05-19T02:22:25.704Z,12.00
2018-05-19T02:23:25.693Z,12.00
2018-05-19T02:24:25.677Z,12.00
2018-05-19T02:25:25.651Z,12.00
2018-05-19T02:26:25.636Z,12.00
2018-05-19T02:27:25.612Z,12.00
2018-05-19T02:28:25.595Z,8.00
2018-05-19T02:29:25.576Z,8.00
2018-05-19T02:30:25.556Z,8.00
2018-05-19T02:31:25.539Z,8.00
2018-05-19T02:32:25.520Z,8.00
2018-05-19T02:33:25.608Z,8.00
2018-05-19T02:34:25.483Z,8.00
2018-05-19T02:35:25.465Z,8.00
2018-05-19T02:36:25.448Z,8.00
2018-05-19T02:37:25.428Z,8.00
2018-05-19T02:38:25.408Z,8.00
2018-05-19T02:39:25.390Z,8.00
2018-05-19T02:40:25.372Z,8.00
2018-05-19T02:41:25.354Z,8.00
2018-05-19T02:42:25.336Z,8.00
2018-05-19T02:43:25.316Z,8.00
2018-05-19T02:44:25.299Z,8.00
2018-05-19T02:45:25.280Z,12.00
2018-05-19T02:46:25.261Z,12.00
2018-05-19T02:47:25.243Z,12.00
2018-05-19T02:48:25.224Z,12.00
2018-05-19T02:49:25.215Z,12.00
2018-05-19T02:50:25.185Z,12.00
2018-05-19T02:51:25.167Z,8.00
2018-05-19T02:52:25.300Z,12.00
2018-05-19T02:53:25.132Z,12.00
2018-05-19T02:54:25.114Z,12.00
2018-05-19T02:55:25.098Z,12.00
2018-05-19T02:56:25.076Z,12.00
2018-05-19T02:57:25.071Z,12.00
2018-05-19T02:58:25.040Z,16.00
2018-05-19T02:59:25.021Z,16.00
2018-05-19T03:00:25.001Z,12.00
2018-05-19T03:01:24.986Z,16.00
2018-05-19T03:02:24.992Z,16.00
2018-05-19T03:03:24.946Z,20.00
2018-05-19T03:04:24.936Z,16.00
2018-05-19T03:05:24.911Z,16.00
2018-05-19T03:06:24.891Z,24.00
2018-05-19T03:07:24.881Z,24.00
2018-05-19T03:08:24.855Z,24.00
2018-05-19T03:09:24.837Z,28.00
2018-05-19T03:10:24.816Z,28.00
2018-05-19T03:11:24.810Z,24.00
2018-05-19T03:12:24.781Z,24.00
2018-05-19T03:13:24.765Z,28.00
2018-05-19T03:14:24.746Z,36.00
2018-05-19T03:15:24.724Z,40.00
2018-05-19T03:16:24.711Z,44.00
2018-05-19T03:17:24.688Z,52.00
2018-05-19T03:18:24.679Z,56.00
2018-05-19T03:19:24.651Z,60.00
2018-05-19T03:20:24.634Z,68.00
2018-05-19T03:21:24.618Z,72.00
2018-05-19T03:22:24.595Z,80.00
2018-05-19T03:23:24.579Z,88.00
2018-05-19T03:24:24.561Z,96.00
2018-05-19T03:25:24.540Z,104.00
2018-05-19T03:26:24.521Z,112.00
2018-05-19T03:27:24.504Z,120.00
2018-05-19T03:28:24.491Z,132.00
2018-05-19T03:29:24.467Z,140.00
2018-05-19T03:30:24.447Z,156.00
2018-05-19T03:31:24.435Z,168.00
2018-05-19T03:32:24.412Z,184.00
2018-05-19T03:33:24.394Z,196.00
2018-05-19T03:34:24.373Z,212.00
2018-05-19T03:35:24.360Z,228.00
2018-05-19T03:36:24.342Z,244.00
2018-05-19T03:37:24.321Z,264.00
2018-05-19T03:38:24.304Z,280.00
2018-05-19T03:39:24.282Z,300.00
2018-05-19T03:40:24.265Z,316.00
2018-05-19T03:41:24.247Z,336.00
2018-05-19T03:42:24.230Z,352.00
2018-05-19T03:43:24.208Z,376.00
2018-05-19T03:44:24.189Z,400.00
2018-05-19T03:45:24.175Z,424.00
2018-05-19T03:46:24.159Z,448.00
2018-05-19T03:47:24.137Z,472.00
2018-05-19T03:48:24.120Z,492.00
2018-05-19T03:49:24.101Z,516.00
2018-05-19T03:50:24.079Z,548.00
2018-05-19T03:51:24.061Z,580.00
2018-05-19T03:52:24.043Z,620.00
2018-05-19T03:53:24.025Z,656.00
2018-05-19T03:54:24.057Z,684.00
2018-05-19T03:55:23.987Z,712.00
2018-05-19T03:56:23.970Z,740.00
2018-05-19T03:57:23.953Z,764.00
2018-05-19T03:58:23.935Z,796.00
2018-05-19T03:59:23.924Z,836.00
2018-05-19T04:00:23.896Z,880.00
2018-05-19T04:01:23.889Z,920.00
2018-05-19T04:02:23.860Z,952.00
2018-05-19T04:03:23.842Z,972.00
2018-05-19T04:04:23.823Z,984.00
2018-05-19T04:05:23.809Z,1000.00
2018-05-19T04:06:23.787Z,1028.00
2018-05-19T04:07:23.769Z,1076.00
2018-05-19T04:08:23.760Z,1168.00
2018-05-19T04:09:23.735Z,1260.00
2018-05-19T04:10:23.713Z,1316.00
2018-05-19T04:11:23.694Z,1368.00
2018-05-19T04:12:23.678Z,1436.00
2018-05-19T04:13:23.663Z,1496.00
2018-05-19T04:14:23.640Z,1532.00
2018-05-19T04:15:23.622Z,1568.00
2018-05-19T04:16:23.604Z,1612.00
2018-05-19T04:17:23.586Z,1652.00
2018-05-19T04:18:23.567Z,1660.00
2018-05-19T04:19:23.558Z,1640.00
2018-05-19T04:20:23.533Z,1640.00
2018-05-19T04:21:23.563Z,1652.00
2018-05-19T04:22:23.496Z,1692.00
2018-05-19T04:23:23.514Z,1732.00
2018-05-19T04:24:23.460Z,1784.00
2018-05-19T04:25:23.480Z,1820.00
2018-05-19T04:26:23.422Z,1844.00
2018-05-19T04:27:23.407Z,1860.00
2018-05-19T04:28:23.383Z,1916.00
2018-05-19T04:29:23.369Z,2000.00
2018-05-19T04:30:23.349Z,2060.00
2018-05-19T04:31:23.329Z,2088.00
2018-05-19T04:32:23.313Z,2116.00
2018-05-19T04:33:23.298Z,2156.00
2018-05-19T04:34:23.274Z,2224.00
2018-05-19T04:35:23.257Z,2324.00
2018-05-19T04:36:23.238Z,2440.00
2018-05-19T04:37:23.227Z,2544.00
2018-05-19T04:38:23.214Z,2612.00
2018-05-19T04:39:23.184Z,2660.00
2018-05-19T04:40:23.168Z,2720.00
2018-05-19T04:41:23.152Z,2824.00
2018-05-19T04:42:23.129Z,2932.00
2018-05-19T04:43:23.113Z,3000.00
2018-05-19T04:44:23.094Z,3036.00
2018-05-19T04:45:23.084Z,3044.00
2018-05-19T04:46:23.059Z,3000.00
2018-05-19T04:47:23.039Z,2976.00
2018-05-19T04:48:23.023Z,3012.00
2018-05-19T04:49:23.004Z,3116.00
2018-05-19T04:50:22.988Z,3244.00
2018-05-19T04:51:22.970Z,3368.00
2018-05-19T04:52:22.954Z,3492.00
2018-05-19T04:53:22.933Z,3564.00
2018-05-19T04:54:22.915Z,3588.00
2018-05-19T04:55:22.939Z,3696.00
2018-05-19T04:56:22.879Z,3832.00
2018-05-19T04:57:22.870Z,3944.00
2018-05-19T04:58:22.843Z,4040.00
2018-05-19T04:59:22.834Z,4216.00
2018-05-19T05:00:22.808Z,4508.00
2018-05-19T05:01:22.799Z,4860.00
2018-05-19T05:02:22.774Z,5156.00
2018-05-19T05:03:22.757Z,5344.00
2018-05-19T05:04:22.738Z,5504.00
2018-05-19T05:05:22.723Z,5752.00
2018-05-19T05:06:22.701Z,5952.00
2018-05-19T05:07:22.686Z,6024.00
2018-05-19T05:08:22.668Z,5996.00
2018-05-19T05:09:22.657Z,5880.00
2018-05-19T05:10:22.633Z,5828.00
2018-05-19T05:11:22.616Z,5856.00
2018-05-19T05:12:22.598Z,6084.00
2018-05-19T05:13:22.582Z,6432.00
2018-05-19T05:14:22.563Z,6836.00
2018-05-19T05:15:22.547Z,7220.00
2018-05-19T05:16:22.528Z,7472.00
2018-05-19T05:17:22.517Z,7548.00
2018-05-19T05:18:22.496Z,7584.00
2018-05-19T05:19:22.490Z,7760.00
2018-05-19T05:20:22.461Z,8148.00
2018-05-19T05:21:22.444Z,8332.00
2018-05-19T05:22:22.432Z,8156.00
2018-05-19T05:23:22.566Z,7732.00
2018-05-19T05:24:22.391Z,7464.00
2018-05-19T05:25:22.375Z,7600.00
2018-05-19T05:26:22.362Z,8148.00
2018-05-19T05:27:22.340Z,8864.00
2018-05-19T05:28:22.327Z,9468.00
2018-05-19T05:29:22.310Z,9424.00
2018-05-19T05:30:22.300Z,9688.00
2018-05-19T05:31:22.275Z,9916.00
2018-05-19T05:32:22.259Z,9592.00
2018-05-19T05:33:22.243Z,9324.00
2018-05-19T05:34:22.227Z,8712.00
2018-05-19T05:35:22.208Z,8504.00
2018-05-19T05:36:22.193Z,8240.00
2018-05-19T05:37:22.176Z,8172.00
2018-05-19T05:38:22.162Z,8256.00
2018-05-19T05:39:22.141Z,9076.00
2018-05-19T05:40:22.126Z,8856.00
2018-05-19T05:41:22.114Z,9420.00
2018-05-19T05:42:22.094Z,9952.00
2018-05-19T05:43:22.077Z,10188.00
2018-05-19T05:44:22.061Z,9848.00
2018-05-19T05:45:22.061Z,9988.00
2018-05-19T05:46:22.033Z,10520.00
2018-05-19T05:47:22.013Z,10968.00
2018-05-19T05:48:21.996Z,10144.00
2018-05-19T05:49:21.980Z,9888.00
2018-05-19T05:50:21.964Z,9868.00
2018-05-19T05:51:21.949Z,10060.00
2018-05-19T05:52:21.932Z,10100.00
2018-05-19T05:53:21.916Z,10292.00
2018-05-19T05:54:21.900Z,10400.00
2018-05-19T05:55:21.890Z,10112.00
2018-05-19T05:56:21.870Z,9840.00
2018-05-19T05:57:21.856Z,9944.00
2018-05-19T05:58:21.839Z,9820.00
2018-05-19T05:59:21.829Z,9464.00
2018-05-19T06:00:21.808Z,9860.00
2018-05-19T06:01:21.790Z,10344.00
2018-05-19T06:02:21.778Z,10720.00
2018-05-19T06:03:21.760Z,11180.00
2018-05-19T06:04:21.752Z,12140.00
2018-05-19T06:05:21.772Z,13676.00
2018-05-19T06:06:21.732Z,14792.00
2018-05-19T06:07:21.698Z,13620.00
2018-05-19T06:08:21.687Z,15732.00
2018-05-19T06:09:21.669Z,19168.00
2018-05-19T06:10:21.653Z,21248.00
2018-05-19T06:11:21.637Z,16096.00
2018-05-19T06:12:21.743Z,22080.00
2018-05-19T06:13:21.608Z,17280.00
2018-05-19T06:14:21.592Z,21728.00
2018-05-19T06:15:21.576Z,18464.00
2018-05-19T06:16:21.562Z,18912.00
2018-05-19T06:17:21.552Z,19552.00
2018-05-19T06:18:21.532Z,18368.00
2018-05-19T06:19:21.517Z,17728.00
2018-05-19T06:20:21.504Z,23840.00
2018-05-19T06:21:21.490Z,21664.00
2018-05-19T06:22:21.475Z,24384.00
2018-05-19T06:23:21.459Z,26528.00
2018-05-19T06:24:21.447Z,40032.00
2018-05-19T06:25:21.434Z,32320.00
2018-05-19T06:26:21.418Z,23552.00
2018-05-19T06:27:21.405Z,19232.00
2018-05-19T06:28:21.391Z,18688.00
2018-05-19T06:29:21.379Z,17056.00
2018-05-19T06:30:21.373Z,18048.00
2018-05-19T06:31:21.365Z,20576.00
2018-05-19T06:32:21.342Z,24000.00
2018-05-19T06:33:21.328Z,20896.00
2018-05-19T06:34:21.313Z,16992.00
2018-05-19T06:35:21.302Z,15632.00
2018-05-19T06:36:21.286Z,15320.00
2018-05-19T06:37:21.289Z,15468.00
2018-05-19T06:38:21.263Z,15932.00
2018-05-19T06:39:21.248Z,16024.00
2018-05-19T06:40:21.234Z,16576.00
2018-05-19T06:41:21.235Z,17120.00
2018-05-19T06:42:21.209Z,17088.00
2018-05-19T06:43:21.212Z,17216.00
2018-05-19T06:44:21.183Z,17504.00
2018-05-19T06:45:21.179Z,17056.00
2018-05-19T06:46:21.161Z,17120.00
2018-05-19T06:47:21.145Z,18080.00
2018-05-19T06:48:21.186Z,17952.00
2018-05-19T06:49:21.121Z,17568.00
2018-05-19T06:50:21.105Z,18304.00
2018-05-19T06:51:21.093Z,21472.00
2018-05-19T06:52:21.090Z,21472.00
2018-05-19T06:53:21.067Z,22176.00
2018-05-19T06:54:21.053Z,21984.00
2018-05-19T06:55:21.040Z,26176.00
2018-05-19T06:56:21.027Z,23616.00
2018-05-19T06:57:21.016Z,23200.00
2018-05-19T06:58:21.006Z,23424.00
2018-05-19T06:59:20.990Z,23200.00
2018-05-19T07:00:20.982Z,23744.00
2018-05-19T07:01:20.965Z,24864.00
2018-05-19T07:02:20.952Z,21728.00
2018-05-19T07:03:20.945Z,22592.00
2018-05-19T07:04:20.927Z,23488.00
2018-05-19T07:05:20.914Z,23648.00
2018-05-19T07:06:20.900Z,25248.00
2018-05-19T07:07:20.888Z,30720.00
2018-05-19T07:08:20.881Z,32832.00
2018-05-19T07:09:20.872Z,31520.00
2018-05-19T07:10:20.873Z,32576.00
2018-05-19T07:11:20.838Z,32384.00
2018-05-19T07:12:20.829Z,29760.00
2018-05-19T07:13:20.813Z,29824.00
2018-05-19T07:14:20.802Z,30016.00
2018-05-19T07:15:20.789Z,47680.00
2018-05-19T07:16:20.779Z,52992.00
2018-05-19T07:17:20.765Z,48896.00
2018-05-19T07:18:20.753Z,41504.00
2018-05-19T07:19:20.743Z,37504.00
2018-05-19T07:20:20.732Z,58880.00
2018-05-19T07:21:20.727Z,28448.00
2018-05-19T07:22:20.718Z,31072.00
2018-05-19T07:23:20.697Z,40032.00
2018-05-19T07:24:20.687Z,49696.00
2018-05-19T07:25:20.676Z,30592.00
2018-05-19T07:26:20.666Z,28512.00
2018-05-19T07:27:20.657Z,29408.00
2018-05-19T07:28:20.647Z,28160.00
2018-05-19T07:29:20.639Z,31040.00
2018-05-19T07:30:20.631Z,37184.00
2018-05-19T07:31:20.617Z,26048.00
2018-05-19T07:32:20.608Z,26080.00
2018-05-19T07:33:20.603Z,28224.00
2018-05-19T07:34:20.587Z,39136.00
2018-05-19T07:35:20.576Z,26560.00
2018-05-19T07:36:20.568Z,25376.00
2018-05-19T07:37:20.567Z,25184.00
2018-05-19T07:38:20.547Z,24192.00
2018-05-19T07:39:20.541Z,25984.00
2018-05-19T07:40:20.529Z,25792.00
2018-05-19T07:41:20.530Z,31104.00
2018-05-19T07:42:20.513Z,33536.00
2018-05-19T07:43:20.499Z,28320.00
2018-05-19T07:44:20.490Z,23328.00
2018-05-19T07:45:20.483Z,20864.00
2018-05-19T07:46:20.469Z,19072.00
2018-05-19T07:47:20.461Z,17952.00
2018-05-19T07:48:20.450Z,17216.00
2018-05-19T07:49:20.447Z,16928.00
2018-05-19T07:50:20.437Z,16928.00
2018-05-19T07:51:20.420Z,16672.00
2018-05-19T07:52:20.413Z,16768.00
2018-05-19T07:53:20.400Z,16532.00
2018-05-19T07:54:20.390Z,15684.00
2018-05-19T07:55:20.386Z,15820.00
2018-05-19T07:56:20.383Z,16780.00
2018-05-19T07:57:20.458Z,17632.00
2018-05-19T07:58:20.428Z,18272.00
2018-05-19T07:59:20.339Z,17792.00
2018-05-19T08:00:20.330Z,17920.00
2018-05-19T08:01:20.318Z,17536.00
2018-05-19T08:02:20.304Z,17568.00
2018-05-19T08:03:20.297Z,19232.00
2018-05-19T08:04:20.301Z,19936.00
2018-05-19T08:05:20.275Z,19360.00
2018-05-19T08:06:20.259Z,18880.00
2018-05-19T08:07:20.247Z,18272.00
2018-05-19T08:08:20.238Z,18048.00
2018-05-19T08:09:20.229Z,18432.00
2018-05-19T08:10:20.215Z,20800.00
2018-05-19T08:11:20.213Z,22688.00
2018-05-19T08:12:20.211Z,19744.00
2018-05-19T08:13:20.184Z,17536.00
2018-05-19T08:14:20.168Z,16588.00
2018-05-19T08:15:20.159Z,16604.00
2018-05-19T08:16:20.150Z,17472.00
2018-05-19T08:17:20.137Z,19360.00
2018-05-19T08:18:20.125Z,22016.00
2018-05-19T08:19:20.120Z,23744.00
2018-05-19T08:20:20.187Z,23616.00
2018-05-19T08:21:20.090Z,23264.00
2018-05-19T08:22:20.077Z,22752.00
2018-05-19T08:23:20.066Z,20768.00
2018-05-19T08:24:20.055Z,21344.00
2018-05-19T08:25:20.045Z,21472.00
2018-05-19T08:26:20.037Z,20640.00
2018-05-19T08:27:20.023Z,22048.00
2018-05-19T08:28:20.008Z,24224.00
2018-05-19T08:29:20.001Z,24192.00
2018-05-19T08:30:19.988Z,23072.00
2018-05-19T08:31:19.975Z,24736.00
2018-05-19T08:32:19.970Z,25280.00
2018-05-19T08:33:19.951Z,26208.00
2018-05-19T08:34:19.941Z,30240.00
2018-05-19T08:35:19.932Z,39104.00
2018-05-19T08:36:19.926Z,41376.00
2018-05-19T08:37:19.908Z,22304.00
2018-05-19T08:38:19.896Z,28288.00
2018-05-19T08:39:19.883Z,27616.00
2018-05-19T08:40:19.877Z,30656.00
2018-05-19T08:41:19.956Z,32128.00
2018-05-19T08:42:19.849Z,23680.00
2018-05-19T08:43:19.836Z,24864.00
2018-05-19T08:44:19.832Z,25696.00
2018-05-19T08:45:19.824Z,25664.00
2018-05-19T08:46:19.810Z,25184.00
2018-05-19T08:47:19.796Z,23712.00
2018-05-19T08:48:19.780Z,22112.00
2018-05-19T08:49:19.770Z,22368.00
2018-05-19T08:50:19.758Z,22400.00
2018-05-19T08:51:19.747Z,20096.00
2018-05-19T08:52:19.754Z,17412.00
2018-05-19T08:53:19.759Z,18144.00
2018-05-19T08:54:19.714Z,19872.00
2018-05-19T08:55:19.721Z,23072.00
2018-05-19T08:56:19.692Z,26560.00
2018-05-19T08:57:19.684Z,27776.00
2018-05-19T08:58:19.811Z,27072.00
2018-05-19T08:59:19.657Z,26528.00
2018-05-19T09:00:19.647Z,24544.00
2018-05-19T09:01:19.634Z,22560.00
2018-05-19T09:02:19.624Z,22432.00
2018-05-19T09:03:19.612Z,22048.00
2018-05-19T09:04:19.602Z,22624.00
2018-05-19T09:05:19.592Z,23424.00
2018-05-19T09:06:19.578Z,23552.00
2018-05-19T09:07:19.569Z,24256.00
2018-05-19T09:08:19.573Z,24352.00
2018-05-19T09:09:19.550Z,23776.00
2018-05-19T09:10:19.538Z,23552.00
2018-05-19T09:11:19.525Z,23744.00
2018-05-19T09:12:19.513Z,24768.00
2018-05-19T09:13:19.504Z,25280.00
2018-05-19T09:14:19.490Z,25056.00
2018-05-19T09:15:19.481Z,24736.00
2018-05-19T09:16:19.486Z,25216.00
2018-05-19T09:17:19.460Z,25728.00
2018-05-19T09:18:19.449Z,29536.00
2018-05-19T09:19:19.442Z,25376.00
2018-05-19T09:20:19.428Z,23616.00
2018-05-19T09:21:19.421Z,51040.00
2018-05-19T09:22:19.404Z,29504.00
2018-05-19T09:23:19.562Z,54208.00
2018-05-19T09:24:19.382Z,38784.00
2018-05-19T09:25:19.373Z,55232.00
2018-05-19T09:26:19.363Z,26944.00
2018-05-19T09:27:19.353Z,27040.00
2018-05-19T09:28:19.342Z,28736.00
2018-05-19T09:29:19.334Z,32736.00
2018-05-19T09:30:19.339Z,31808.00
2018-05-19T09:31:19.315Z,28800.00
2018-05-19T09:32:19.310Z,30272.00
2018-05-19T09:33:19.313Z,28224.00
2018-05-19T09:34:19.283Z,29888.00
2018-05-19T09:35:19.273Z,28864.00
2018-05-19T09:36:19.284Z,57312.00
2018-05-19T09:37:19.254Z,27168.00
2018-05-19T09:38:19.246Z,29856.00
2018-05-19T09:39:19.244Z,31360.00
2018-05-19T09:40:19.243Z,28640.00
2018-05-19T09:41:19.223Z,28352.00
2018-05-19T09:42:19.208Z,34080.00
2018-05-19T09:43:19.200Z,44576.00
2018-05-19T09:44:19.192Z,41440.00
2018-05-19T09:45:19.183Z,24576.00
2018-05-19T09:46:19.177Z,21760.00
2018-05-19T09:47:19.233Z,20768.00
2018-05-19T09:48:19.157Z,20416.00
2018-05-19T09:49:19.151Z,21856.00
2018-05-19T09:50:19.147Z,58272.00
2018-05-19T09:51:19.147Z,26976.00
2018-05-19T09:52:19.123Z,35200.00
2018-05-19T09:53:19.116Z,26944.00
2018-05-19T09:54:19.111Z,21280.00
2018-05-19T09:55:19.098Z,19776.00
2018-05-19T09:56:19.090Z,20160.00
2018-05-19T09:57:19.084Z,20000.00
2018-05-19T09:58:19.073Z,20320.00
2018-05-19T09:59:19.077Z,23840.00
2018-05-19T10:00:19.062Z,25920.00
2018-05-19T10:01:19.045Z,28064.00
2018-05-19T10:02:19.056Z,18880.00
2018-05-19T10:03:19.076Z,18656.00
2018-05-19T10:04:19.025Z,18592.00
2018-05-19T10:05:19.008Z,19392.00
2018-05-19T10:06:18.997Z,24224.00
2018-05-19T10:07:19.021Z,26432.00
2018-05-19T10:08:18.990Z,38400.00
2018-05-19T10:09:18.978Z,21184.00
2018-05-19T10:10:18.960Z,19392.00
2018-05-19T10:11:18.960Z,18912.00
2018-05-19T10:12:18.941Z,19648.00
2018-05-19T10:13:18.933Z,20416.00
2018-05-19T10:14:18.932Z,20960.00
2018-05-19T10:15:18.937Z,22176.00
2018-05-19T10:16:18.912Z,27712.00
2018-05-19T10:17:18.918Z,46176.00
2018-05-19T10:18:18.901Z,92672.00
2018-05-19T10:19:18.877Z,110272.00
2018-05-19T10:20:18.873Z,111040.00
2018-05-19T10:21:18.855Z,112928.00
2018-05-19T10:22:18.855Z,114240.00
2018-05-19T10:23:18.854Z,105472.00
2018-05-19T10:24:18.833Z,91200.00
2018-05-19T10:25:18.830Z,79360.00
2018-05-19T10:26:18.819Z,58816.00
2018-05-19T10:27:18.813Z,23680.00
2018-05-19T10:28:18.898Z,20416.00
2018-05-19T10:29:18.808Z,23776.00
2018-05-19T10:30:18.800Z,22080.00
2018-05-19T10:31:18.793Z,22592.00
2018-05-19T10:32:18.787Z,25344.00
2018-05-19T10:33:18.826Z,45248.00
2018-05-19T10:34:18.780Z,29408.00
2018-05-19T10:35:18.770Z,31456.00
2018-05-19T10:36:18.763Z,68672.00
2018-05-19T10:37:18.767Z,60224.00
2018-05-19T10:38:18.757Z,38336.00
2018-05-19T10:39:18.744Z,100320.00
2018-05-19T10:40:18.751Z,64576.00
2018-05-19T10:41:18.746Z,23392.00
2018-05-19T10:42:18.727Z,22304.00
2018-05-19T10:43:18.722Z,21216.00
2018-05-19T10:44:18.716Z,21120.00
2018-05-19T10:45:18.712Z,20608.00
2018-05-19T10:46:18.706Z,20256.00
2018-05-19T10:47:18.715Z,21952.00
2018-05-19T10:48:18.692Z,66656.00
2018-05-19T10:49:18.697Z,80608.00
2018-05-19T10:50:18.692Z,89664.00
2018-05-19T10:51:18.674Z,22496.00
2018-05-19T10:52:18.669Z,22432.00
2018-05-19T10:53:18.669Z,20480.00
2018-05-19T10:54:18.663Z,17984.00
2018-05-19T10:55:18.647Z,16124.00
2018-05-19T10:56:18.652Z,15360.00
2018-05-19T10:57:18.650Z,15692.00
2018-05-19T10:58:18.637Z,16024.00
2018-05-19T10:59:18.628Z,16320.00
2018-05-19T11:00:18.611Z,16320.00
2018-05-19T11:01:18.617Z,16288.00
2018-05-19T11:02:18.604Z,16512.00
2018-05-19T11:03:18.589Z,16288.00
2018-05-19T11:04:18.581Z,16416.00
2018-05-19T11:05:18.574Z,16736.00
2018-05-19T11:06:18.564Z,16384.00
2018-05-19T11:07:18.557Z,16288.00
2018-05-19T11:08:18.548Z,16384.00
2018-05-19T11:09:18.542Z,16864.00
2018-05-19T11:10:18.560Z,17664.00
2018-05-19T11:11:18.539Z,18400.00
2018-05-19T11:12:18.520Z,19392.00
2018-05-19T11:13:18.517Z,20352.00
2018-05-19T11:14:18.546Z,21312.00
2018-05-19T11:15:18.496Z,24192.00
2018-05-19T11:16:18.480Z,28160.00
2018-05-19T11:17:18.479Z,34272.00
2018-05-19T11:18:18.467Z,25472.00
2018-05-19T11:19:18.453Z,24192.00
2018-05-19T11:20:18.444Z,27328.00
2018-05-19T11:21:18.440Z,27520.00
2018-05-19T11:22:18.426Z,25280.00
2018-05-19T11:23:18.434Z,26112.00
2018-05-19T11:24:18.424Z,34368.00
2018-05-19T11:25:18.494Z,29920.00
2018-05-19T11:26:18.391Z,26016.00
2018-05-19T11:27:18.401Z,27392.00
2018-05-19T11:28:18.373Z,25472.00
2018-05-19T11:29:18.374Z,24224.00
2018-05-19T11:30:18.365Z,23392.00
2018-05-19T11:31:18.347Z,23200.00
2018-05-19T11:32:18.341Z,23616.00
2018-05-19T11:33:18.382Z,22784.00
2018-05-19T11:34:18.323Z,24480.00
2018-05-19T11:35:18.311Z,35904.00
2018-05-19T11:36:18.307Z,41632.00
2018-05-19T11:37:18.314Z,26368.00
2018-05-19T11:38:18.282Z,24192.00
2018-05-19T11:39:18.275Z,27488.00
2018-05-19T11:40:18.268Z,28800.00
2018-05-19T11:41:18.256Z,24544.00
2018-05-19T11:42:18.249Z,21440.00
2018-05-19T11:43:18.336Z,19616.00
2018-05-19T11:44:18.227Z,18080.00
2018-05-19T11:45:18.229Z,16812.00
2018-05-19T11:46:18.207Z,16076.00
2018-05-19T11:47:18.202Z,16140.00
2018-05-19T11:48:18.196Z,16864.00
2018-05-19T11:49:18.187Z,15564.00
2018-05-19T11:50:18.173Z,14420.00
2018-05-19T11:51:18.173Z,15188.00
2018-05-19T11:52:18.151Z,14288.00
2018-05-19T11:53:18.156Z,14804.00
2018-05-19T11:54:18.132Z,18432.00
2018-05-19T11:55:18.124Z,19648.00
2018-05-19T11:56:18.120Z,19488.00
2018-05-19T11:57:18.101Z,19680.00
2018-05-19T11:58:18.098Z,20128.00
2018-05-19T11:59:18.085Z,19872.00
2018-05-19T12:00:18.071Z,18944.00
2018-05-19T12:01:18.062Z,18176.00
2018-05-19T12:02:18.052Z,17536.00
2018-05-19T12:03:18.041Z,16964.00
2018-05-19T12:04:18.035Z,17376.00
2018-05-19T12:05:18.019Z,17216.00
2018-05-19T12:06:18.010Z,17216.00
2018-05-19T12:07:18.001Z,17664.00
2018-05-19T12:08:17.989Z,17824.00